createdAt,value
2019-03-04T00:00:15.903Z,13.53
2019-03-04T00:00:42.011Z,13.5
2019-03-04T00:01:08.114Z,13.52
2019-03-04T00:01:34.262Z,13.52
2019-03-04T00:02:00.371Z,13.56
2019-03-04T00:02:26.479Z,13.54
2019-03-04T00:02:52.579Z,13.54
2019-03-04T00:03:18.686Z,13.52
2019-03-04T00:03:44.818Z,13.5
2019-03-04T00:04:10.929Z,13.54
2019-03-04T00:04:37.041Z,13.62
2019-03-04T00:05:03.150Z,13.62
2019-03-04T00:05:29.285Z,13.56
2019-03-04T00:05:55.401Z,13.5
2019-03-04T00:06:21.536Z,13.56
2019-03-04T00:06:47.641Z,13.57
2019-03-04T00:07:13.750Z,13.54
2019-03-04T00:07:39.854Z,13.53
2019-03-04T00:08:05.958Z,13.57
2019-03-04T00:08:32.945Z,13.56
2019-03-04T00:08:59.064Z,13.57
2019-03-04T00:09:25.178Z,13.5
2019-03-04T00:09:51.281Z,13.54
2019-03-04T00:10:17.385Z,13.52
2019-03-04T00:10:43.494Z,13.46
2019-03-04T00:11:09.630Z,13.56
2019-03-04T00:11:35.793Z,13.57
2019-03-04T00:12:01.906Z,13.53
2019-03-04T00:12:28.039Z,13.52
2019-03-04T00:12:54.147Z,13.53
2019-03-04T00:13:20.301Z,13.54
2019-03-04T00:13:46.360Z,13.57
2019-03-04T00:14:12.474Z,13.46
2019-03-04T00:14:38.573Z,13.59
2019-03-04T00:15:04.681Z,13.59
2019-03-04T00:15:30.813Z,13.5
2019-03-04T00:15:56.926Z,13.49
2019-03-04T00:16:23.030Z,13.63
2019-03-04T00:16:49.137Z,13.6
2019-03-04T00:17:15.248Z,13.59
2019-03-04T00:17:41.358Z,13.59
2019-03-04T00:18:07.459Z,13.6
2019-03-04T00:18:33.566Z,13.6
2019-03-04T00:18:59.677Z,13.6
2019-03-04T00:19:25.784Z,13.59
2019-03-04T00:19:51.892Z,13.49
2019-03-04T00:20:17.994Z,13.49
2019-03-04T00:20:44.110Z,13.6
2019-03-04T00:21:10.221Z,13.46
2019-03-04T00:21:36.320Z,13.62
2019-03-04T00:22:02.430Z,13.59
2019-03-04T00:22:28.531Z,13.54
2019-03-04T00:22:54.668Z,13.57
2019-03-04T00:23:20.779Z,13.6
2019-03-04T00:23:46.879Z,13.6
2019-03-04T00:24:12.980Z,13.62
2019-03-04T00:24:39.089Z,13.57
2019-03-04T00:25:05.200Z,13.6
2019-03-04T00:25:31.308Z,13.63
2019-03-04T00:25:57.415Z,13.57
2019-03-04T00:26:23.528Z,13.62
2019-03-04T00:26:49.637Z,13.57
2019-03-04T00:27:15.750Z,13.59
2019-03-04T00:27:41.852Z,13.71
2019-03-04T00:28:07.961Z,13.65
2019-03-04T00:28:34.070Z,13.65
2019-03-04T00:29:00.209Z,13.56
2019-03-04T00:29:26.315Z,13.57
2019-03-04T00:29:52.478Z,13.63
2019-03-04T00:30:18.535Z,13.62
2019-03-04T00:30:44.644Z,13.62
2019-03-04T00:31:10.751Z,13.67
2019-03-04T00:31:36.868Z,13.67
2019-03-04T00:32:02.972Z,13.71
2019-03-04T00:32:29.070Z,13.6
2019-03-04T00:32:55.645Z,13.71
2019-03-04T00:33:21.761Z,13.57
2019-03-04T00:33:47.889Z,13.57
2019-03-04T00:34:14.024Z,13.72
2019-03-04T00:34:40.153Z,13.74
2019-03-04T00:35:06.263Z,13.71
2019-03-04T00:35:32.367Z,13.6
2019-03-04T00:35:58.473Z,13.63
2019-03-04T00:36:24.580Z,13.57
2019-03-04T00:36:50.692Z,13.67
2019-03-04T00:37:16.798Z,13.7
2019-03-04T00:37:42.903Z,13.74
2019-03-04T00:38:09.017Z,13.72
2019-03-04T00:38:35.119Z,13.71
2019-03-04T00:39:01.232Z,13.75
2019-03-04T00:39:27.339Z,13.7
2019-03-04T00:39:53.447Z,13.77
2019-03-04T00:40:19.554Z,13.7
2019-03-04T00:40:45.648Z,13.71
2019-03-04T00:41:11.757Z,13.67
2019-03-04T00:41:37.892Z,13.75
2019-03-04T00:42:04.000Z,13.75
2019-03-04T00:42:30.106Z,13.72
2019-03-04T00:42:56.213Z,13.71
2019-03-04T00:43:22.385Z,13.72
2019-03-04T00:43:48.610Z,13.68
2019-03-04T00:44:14.777Z,13.74
2019-03-04T00:44:41.022Z,13.71
2019-03-04T00:45:07.224Z,13.71
2019-03-04T00:45:34.063Z,13.71
2019-03-04T00:46:00.180Z,13.68
2019-03-04T00:46:26.285Z,13.7
2019-03-04T00:46:52.390Z,13.7
2019-03-04T00:47:18.505Z,13.75
2019-03-04T00:47:44.604Z,13.72
2019-03-04T00:48:10.721Z,13.72
2019-03-04T00:48:36.828Z,13.68
2019-03-04T00:49:02.949Z,13.77
2019-03-04T00:49:29.101Z,13.65
2019-03-04T00:49:56.968Z,13.75
2019-03-04T00:50:22.383Z,13.7
2019-03-04T00:50:48.488Z,13.81
2019-03-04T00:51:14.597Z,13.72
2019-03-04T00:51:40.705Z,13.75
2019-03-04T00:52:06.813Z,13.77
2019-03-04T00:52:32.921Z,13.77
2019-03-04T00:52:59.031Z,13.65
2019-03-04T00:53:25.134Z,13.77
2019-03-04T00:53:51.277Z,13.67
2019-03-04T00:54:17.375Z,13.77
2019-03-04T00:54:43.492Z,13.78
2019-03-04T00:55:09.598Z,13.79
2019-03-04T00:55:35.813Z,13.79
2019-03-04T00:56:01.943Z,13.77
2019-03-04T00:56:28.056Z,13.77
2019-03-04T00:56:54.166Z,13.74
2019-03-04T00:57:20.271Z,13.77
2019-03-04T00:57:46.530Z,13.68
2019-03-04T00:58:12.631Z,13.78
2019-03-04T00:58:38.744Z,13.72
2019-03-04T00:59:04.850Z,13.77
2019-03-04T00:59:31.428Z,13.75
2019-03-04T00:59:57.092Z,13.78
2019-03-04T01:00:23.198Z,13.83
2019-03-04T01:00:49.312Z,13.72
2019-03-04T01:01:15.521Z,13.75
2019-03-04T01:01:41.625Z,13.78
2019-03-04T01:02:07.730Z,13.79
2019-03-04T01:02:33.842Z,13.81
2019-03-04T01:02:59.950Z,13.85
2019-03-04T01:03:26.172Z,13.83
2019-03-04T01:03:52.279Z,13.89
2019-03-04T01:04:18.392Z,13.81
2019-03-04T01:04:44.499Z,13.85
2019-03-04T01:05:10.598Z,13.89
2019-03-04T01:05:36.734Z,13.87
2019-03-04T01:06:03.496Z,13.81
2019-03-04T01:06:29.639Z,13.87
2019-03-04T01:06:55.744Z,13.87
2019-03-04T01:07:21.856Z,13.92
2019-03-04T01:07:47.972Z,13.86
2019-03-04T01:08:14.095Z,13.95
2019-03-04T01:08:40.203Z,13.96
2019-03-04T01:09:06.320Z,13.95
2019-03-04T01:09:32.425Z,13.93
2019-03-04T01:09:58.530Z,13.89
2019-03-04T01:10:24.663Z,13.87
2019-03-04T01:10:50.773Z,13.97
2019-03-04T01:11:16.880Z,13.92
2019-03-04T01:11:42.987Z,13.9
2019-03-04T01:12:09.086Z,13.87
2019-03-04T01:12:35.194Z,13.87
2019-03-04T01:13:01.305Z,13.83
2019-03-04T01:13:27.417Z,13.77
2019-03-04T01:13:53.526Z,13.77
2019-03-04T01:14:19.628Z,13.75
2019-03-04T01:14:45.746Z,13.77
2019-03-04T01:15:11.841Z,13.72
2019-03-04T01:15:37.983Z,13.78
2019-03-04T01:16:04.082Z,13.77
2019-03-04T01:16:30.199Z,13.75
2019-03-04T01:16:56.355Z,13.83
2019-03-04T01:17:22.460Z,13.75
2019-03-04T01:17:48.675Z,13.78
2019-03-04T01:18:14.780Z,13.71
2019-03-04T01:18:40.895Z,13.83
2019-03-04T01:19:07.002Z,13.78
2019-03-04T01:19:33.110Z,13.77
2019-03-04T01:19:59.215Z,13.79
2019-03-04T01:20:25.319Z,13.74
2019-03-04T01:20:51.428Z,13.74
2019-03-04T01:21:17.539Z,13.77
2019-03-04T01:21:43.649Z,13.71
2019-03-04T01:22:09.848Z,13.79
2019-03-04T01:22:36.016Z,13.72
2019-03-04T01:23:02.173Z,13.77
2019-03-04T01:23:28.285Z,13.71
2019-03-04T01:23:55.375Z,13.75
2019-03-04T01:24:21.492Z,13.75
2019-03-04T01:24:47.653Z,13.7
2019-03-04T01:25:13.762Z,13.63
2019-03-04T01:25:39.869Z,13.59
2019-03-04T01:26:06.009Z,13.6
2019-03-04T01:26:32.092Z,13.63
2019-03-04T01:26:58.197Z,13.65
2019-03-04T01:27:24.305Z,13.65
2019-03-04T01:27:50.437Z,13.71
2019-03-04T01:28:16.652Z,13.62
2019-03-04T01:28:42.918Z,13.62
2019-03-04T01:29:09.279Z,13.71
2019-03-04T01:29:35.481Z,13.67
2019-03-04T01:30:01.583Z,13.7
2019-03-04T01:30:27.701Z,13.75
2019-03-04T01:30:53.843Z,13.78
2019-03-04T01:31:19.942Z,13.72
2019-03-04T01:31:46.051Z,13.71
2019-03-04T01:32:12.188Z,13.7
2019-03-04T01:32:38.294Z,13.62
2019-03-04T01:33:04.403Z,13.68
2019-03-04T01:33:30.542Z,13.7
2019-03-04T01:33:56.648Z,13.62
2019-03-04T01:34:22.757Z,13.68
2019-03-04T01:34:48.861Z,13.68
2019-03-04T01:35:14.962Z,13.72
2019-03-04T01:35:41.067Z,13.56
2019-03-04T01:36:07.167Z,13.6
2019-03-04T01:36:33.278Z,13.65
2019-03-04T01:36:59.513Z,13.68
2019-03-04T01:37:25.717Z,13.65
2019-03-04T01:37:51.820Z,13.7
2019-03-04T01:38:17.937Z,13.67
2019-03-04T01:38:44.044Z,13.65
2019-03-04T01:39:10.193Z,13.68
2019-03-04T01:39:36.395Z,13.65
2019-03-04T01:40:02.486Z,13.67
2019-03-04T01:40:28.598Z,13.63
2019-03-04T01:40:54.698Z,13.68
2019-03-04T01:41:20.808Z,13.74
2019-03-04T01:41:46.918Z,13.67
2019-03-04T01:42:13.020Z,13.6
2019-03-04T01:42:39.135Z,13.72
2019-03-04T01:43:05.243Z,13.7
2019-03-04T01:43:31.358Z,13.62
2019-03-04T01:43:57.465Z,13.77
2019-03-04T01:44:23.574Z,13.65
2019-03-04T01:44:49.678Z,13.71
2019-03-04T01:45:15.934Z,13.63
2019-03-04T01:45:42.038Z,13.71
2019-03-04T01:46:08.138Z,13.72
2019-03-04T01:46:34.254Z,13.72
2019-03-04T01:47:00.559Z,13.78
2019-03-04T01:47:26.662Z,13.71
2019-03-04T01:47:52.801Z,13.7
2019-03-04T01:48:18.942Z,13.7
2019-03-04T01:48:45.078Z,13.68
2019-03-04T01:49:11.320Z,13.7
2019-03-04T01:49:37.444Z,13.68
2019-03-04T01:50:03.632Z,13.77
2019-03-04T01:50:29.733Z,13.74
2019-03-04T01:50:55.855Z,13.71
2019-03-04T01:51:22.094Z,13.7
2019-03-04T01:51:48.236Z,13.72
2019-03-04T01:52:14.568Z,13.77
2019-03-04T01:52:40.709Z,13.78
2019-03-04T01:53:06.817Z,13.74
2019-03-04T01:53:32.924Z,13.68
2019-03-04T01:53:59.031Z,13.62
2019-03-04T01:54:25.133Z,13.72
2019-03-04T01:54:51.239Z,13.67
2019-03-04T01:55:17.383Z,13.57
2019-03-04T01:55:43.490Z,13.62
2019-03-04T01:56:09.610Z,13.72
2019-03-04T01:56:35.800Z,13.65
2019-03-04T01:57:01.955Z,13.62
2019-03-04T01:57:28.039Z,13.72
2019-03-04T01:57:54.180Z,13.63
2019-03-04T01:58:20.286Z,13.6
2019-03-04T01:58:46.395Z,13.63
2019-03-04T01:59:12.527Z,13.63
2019-03-04T01:59:38.631Z,13.71
2019-03-04T02:00:04.743Z,13.65
2019-03-04T02:00:30.851Z,13.75
2019-03-04T02:00:56.963Z,13.75
2019-03-04T02:01:23.072Z,13.63
2019-03-04T02:01:49.205Z,13.63
2019-03-04T02:02:15.342Z,13.65
2019-03-04T02:02:41.450Z,13.72
2019-03-04T02:03:07.556Z,13.72
2019-03-04T02:03:33.664Z,13.72
2019-03-04T02:03:59.773Z,13.72
2019-03-04T02:04:25.884Z,13.75
2019-03-04T02:04:51.987Z,13.71
2019-03-04T02:05:18.095Z,13.77
2019-03-04T02:05:44.229Z,13.72
2019-03-04T02:06:10.341Z,13.78
2019-03-04T02:06:36.440Z,13.75
2019-03-04T02:07:02.558Z,13.7
2019-03-04T02:07:28.656Z,13.81
2019-03-04T02:07:54.769Z,13.79
2019-03-04T02:08:20.901Z,13.75
2019-03-04T02:08:47.060Z,13.81
2019-03-04T02:09:13.264Z,13.79
2019-03-04T02:09:39.379Z,13.78
2019-03-04T02:10:05.502Z,13.7
2019-03-04T02:10:31.607Z,13.67
2019-03-04T02:10:57.714Z,13.72
2019-03-04T02:11:23.827Z,13.78
2019-03-04T02:11:49.929Z,13.74
2019-03-04T02:12:16.038Z,13.7
2019-03-04T02:12:42.144Z,13.62
2019-03-04T02:13:08.255Z,13.74
2019-03-04T02:13:34.398Z,13.71
2019-03-04T02:14:00.531Z,13.63
2019-03-04T02:14:26.650Z,13.65
2019-03-04T02:14:52.758Z,13.72
2019-03-04T02:15:18.983Z,13.67
2019-03-04T02:15:45.034Z,13.7
2019-03-04T02:16:11.159Z,13.62
2019-03-04T02:16:37.258Z,13.75
2019-03-04T02:17:03.402Z,13.72
2019-03-04T02:17:29.503Z,13.71
2019-03-04T02:17:55.609Z,13.72
2019-03-04T02:18:21.760Z,13.72
2019-03-04T02:18:47.861Z,13.71
2019-03-04T02:19:13.974Z,13.72
2019-03-04T02:19:40.074Z,13.77
2019-03-04T02:20:06.187Z,13.78
2019-03-04T02:20:32.288Z,13.68
2019-03-04T02:20:58.426Z,13.67
2019-03-04T02:21:24.534Z,13.78
2019-03-04T02:21:50.642Z,13.62
2019-03-04T02:22:16.751Z,13.71
2019-03-04T02:22:42.858Z,13.7
2019-03-04T02:23:09.022Z,13.77
2019-03-04T02:23:35.157Z,13.72
2019-03-04T02:24:01.265Z,13.68
2019-03-04T02:24:27.375Z,13.62
2019-03-04T02:24:53.490Z,13.7
2019-03-04T02:25:19.584Z,13.7
2019-03-04T02:25:45.702Z,13.72
2019-03-04T02:26:11.825Z,13.7
2019-03-04T02:26:37.926Z,13.59
2019-03-04T02:27:04.038Z,13.71
2019-03-04T02:27:30.150Z,13.7
2019-03-04T02:27:56.257Z,13.7
2019-03-04T02:28:22.363Z,13.67
2019-03-04T02:28:48.473Z,13.72
2019-03-04T02:29:14.613Z,13.71
2019-03-04T02:29:40.751Z,13.72
2019-03-04T02:30:06.858Z,13.77
2019-03-04T02:30:32.975Z,13.7
2019-03-04T02:30:59.091Z,13.71
2019-03-04T02:31:25.224Z,13.75
2019-03-04T02:31:51.322Z,13.7
2019-03-04T02:32:17.480Z,13.77
2019-03-04T02:32:43.628Z,13.77
2019-03-04T02:33:09.743Z,13.77
2019-03-04T02:33:35.873Z,13.74
2019-03-04T02:34:01.977Z,13.72
2019-03-04T02:34:28.084Z,13.75
2019-03-04T02:34:54.226Z,13.72
2019-03-04T02:35:20.365Z,13.71
2019-03-04T02:35:46.480Z,13.74
2019-03-04T02:36:12.655Z,13.83
2019-03-04T02:36:38.893Z,13.75
2019-03-04T02:37:05.039Z,13.75
2019-03-04T02:37:31.145Z,13.74
2019-03-04T02:37:57.282Z,13.79
2019-03-04T02:38:23.427Z,13.75
2019-03-04T02:38:49.595Z,13.77
2019-03-04T02:39:15.688Z,13.74
2019-03-04T02:39:41.830Z,13.68
2019-03-04T02:40:07.960Z,13.72
2019-03-04T02:40:34.071Z,13.72
2019-03-04T02:41:00.208Z,13.72
2019-03-04T02:41:26.320Z,13.62
2019-03-04T02:41:52.459Z,13.68
2019-03-04T02:42:18.734Z,13.67
2019-03-04T02:42:45.006Z,13.62
2019-03-04T02:43:11.145Z,13.72
2019-03-04T02:43:37.253Z,13.75
2019-03-04T02:44:03.384Z,13.7
2019-03-04T02:44:29.547Z,13.74
2019-03-04T02:44:55.658Z,13.67
2019-03-04T02:45:21.760Z,13.7
2019-03-04T02:45:47.897Z,13.68
2019-03-04T02:46:14.125Z,13.81
2019-03-04T02:46:40.244Z,13.68
2019-03-04T02:47:06.375Z,13.74
2019-03-04T02:47:32.613Z,13.67
2019-03-04T02:47:58.749Z,13.72
2019-03-04T02:48:24.858Z,13.6
2019-03-04T02:48:50.988Z,13.71
2019-03-04T02:49:17.131Z,13.7
2019-03-04T02:49:43.262Z,13.7
2019-03-04T02:50:09.380Z,13.67
2019-03-04T02:50:35.518Z,13.71
2019-03-04T02:51:01.663Z,13.74
2019-03-04T02:51:27.789Z,13.71
2019-03-04T02:51:53.866Z,13.75
2019-03-04T02:52:20.003Z,13.59
2019-03-04T02:52:46.107Z,13.7
2019-03-04T02:53:12.245Z,13.65
2019-03-04T02:53:38.414Z,13.68
2019-03-04T02:54:04.519Z,13.6
2019-03-04T02:54:30.705Z,13.62
2019-03-04T02:54:56.943Z,13.62
2019-03-04T02:55:23.113Z,13.68
2019-03-04T02:55:49.242Z,13.67
2019-03-04T02:56:15.376Z,13.63
2019-03-04T02:56:41.483Z,13.63
2019-03-04T02:57:07.592Z,13.75
2019-03-04T02:57:33.692Z,13.68
2019-03-04T02:57:59.797Z,13.71
2019-03-04T02:58:25.918Z,13.57
2019-03-04T02:58:52.015Z,13.62
2019-03-04T02:59:18.214Z,13.59
2019-03-04T02:59:44.388Z,13.63
2019-03-04T03:00:10.512Z,13.68
2019-03-04T03:00:36.623Z,13.67
2019-03-04T03:01:02.723Z,13.68
2019-03-04T03:01:28.893Z,13.74
2019-03-04T03:01:55.005Z,13.59
2019-03-04T03:02:21.110Z,13.74
2019-03-04T03:02:47.223Z,13.59
2019-03-04T03:03:13.389Z,13.65
2019-03-04T03:03:39.488Z,13.68
2019-03-04T03:04:05.599Z,13.6
2019-03-04T03:04:31.700Z,13.57
2019-03-04T03:04:57.832Z,13.63
2019-03-04T03:05:24.089Z,13.57
2019-03-04T03:05:50.237Z,13.57
2019-03-04T03:06:16.345Z,13.67
2019-03-04T03:06:42.471Z,13.59
2019-03-04T03:07:08.609Z,13.63
2019-03-04T03:07:34.714Z,13.7
2019-03-04T03:08:00.854Z,13.59
2019-03-04T03:08:26.992Z,13.65
2019-03-04T03:08:53.104Z,13.62
2019-03-04T03:09:19.302Z,13.71
2019-03-04T03:09:45.407Z,13.71
2019-03-04T03:10:11.517Z,13.71
2019-03-04T03:10:37.647Z,13.75
2019-03-04T03:11:03.754Z,13.72
2019-03-04T03:11:29.861Z,13.62
2019-03-04T03:11:55.993Z,13.67
2019-03-04T03:12:22.106Z,13.67
2019-03-04T03:12:48.208Z,13.57
2019-03-04T03:13:14.348Z,13.62
2019-03-04T03:13:40.485Z,13.63
2019-03-04T03:14:06.653Z,13.63
2019-03-04T03:14:32.756Z,13.71
2019-03-04T03:14:59.025Z,13.68
2019-03-04T03:15:25.174Z,13.77
2019-03-04T03:15:51.276Z,13.68
2019-03-04T03:16:17.386Z,13.59
2019-03-04T03:16:43.485Z,13.72
2019-03-04T03:17:09.592Z,13.65
2019-03-04T03:17:35.717Z,13.63
2019-03-04T03:18:01.845Z,13.6
2019-03-04T03:18:27.951Z,13.68
2019-03-04T03:18:54.054Z,13.68
2019-03-04T03:19:20.169Z,13.67
2019-03-04T03:19:46.297Z,13.65
2019-03-04T03:20:12.411Z,13.74
2019-03-04T03:20:38.542Z,13.65
2019-03-04T03:21:04.707Z,13.71
2019-03-04T03:21:30.815Z,13.79
2019-03-04T03:21:56.983Z,13.77
2019-03-04T03:22:23.192Z,13.74
2019-03-04T03:22:49.371Z,13.77
2019-03-04T03:23:15.534Z,13.77
2019-03-04T03:23:41.673Z,13.74
2019-03-04T03:24:08.797Z,13.74
2019-03-04T03:24:34.909Z,13.74
2019-03-04T03:25:01.133Z,13.74
2019-03-04T03:25:27.242Z,13.72
2019-03-04T03:25:53.355Z,13.74
2019-03-04T03:26:19.450Z,13.77
2019-03-04T03:26:45.561Z,13.68
2019-03-04T03:27:11.732Z,13.74
2019-03-04T03:27:37.823Z,13.71
2019-03-04T03:28:03.939Z,13.75
2019-03-04T03:28:30.100Z,13.77
2019-03-04T03:28:56.244Z,13.78
2019-03-04T03:29:22.366Z,13.77
2019-03-04T03:29:48.604Z,13.78
2019-03-04T03:30:14.729Z,13.77
2019-03-04T03:30:40.825Z,13.81
2019-03-04T03:31:06.969Z,13.79
2019-03-04T03:31:33.222Z,13.79
2019-03-04T03:31:59.327Z,13.72
2019-03-04T03:32:25.491Z,13.78
2019-03-04T03:32:51.731Z,13.78
2019-03-04T03:33:17.843Z,13.77
2019-03-04T03:33:44.037Z,13.72
2019-03-04T03:34:10.180Z,13.83
2019-03-04T03:34:36.416Z,13.83
2019-03-04T03:35:07.246Z,13.83
2019-03-04T03:35:30.094Z,13.72
2019-03-04T03:35:56.257Z,13.75
2019-03-04T03:36:22.342Z,13.89
2019-03-04T03:36:48.538Z,13.87
2019-03-04T03:37:14.687Z,13.79
2019-03-04T03:37:40.794Z,13.75
2019-03-04T03:38:06.931Z,13.77
2019-03-04T03:38:33.037Z,13.79
2019-03-04T03:38:59.147Z,13.79
2019-03-04T03:39:25.248Z,13.77
2019-03-04T03:39:51.346Z,13.81
2019-03-04T03:40:17.493Z,13.75
2019-03-04T03:40:43.597Z,13.86
2019-03-04T03:41:09.759Z,13.87
2019-03-04T03:41:35.861Z,13.85
2019-03-04T03:42:01.959Z,13.81
2019-03-04T03:42:29.093Z,13.86
2019-03-04T03:42:55.388Z,13.79
2019-03-04T03:43:21.563Z,13.77
2019-03-04T03:43:47.696Z,13.75
2019-03-04T03:44:13.846Z,13.74
2019-03-04T03:44:39.971Z,13.78
2019-03-04T03:45:06.226Z,13.78
2019-03-04T03:45:32.332Z,13.78
2019-03-04T03:45:58.441Z,13.74
2019-03-04T03:46:24.548Z,13.79
2019-03-04T03:46:50.656Z,13.78
2019-03-04T03:47:16.797Z,13.77
2019-03-04T03:47:42.900Z,13.72
2019-03-04T03:48:09.037Z,13.77
2019-03-04T03:48:35.147Z,13.83
2019-03-04T03:49:01.257Z,13.79
2019-03-04T03:49:27.389Z,13.79
2019-03-04T03:49:53.514Z,13.83
2019-03-04T03:50:19.643Z,13.81
2019-03-04T03:50:45.760Z,13.77
2019-03-04T03:51:11.882Z,13.75
2019-03-04T03:51:37.985Z,13.77
2019-03-04T03:52:04.092Z,13.74
2019-03-04T03:52:30.232Z,13.79
2019-03-04T03:52:56.393Z,13.77
2019-03-04T03:53:22.537Z,13.77
2019-03-04T03:53:48.668Z,13.7
2019-03-04T03:54:14.775Z,13.74
2019-03-04T03:54:40.882Z,13.63
2019-03-04T03:55:07.012Z,13.63
2019-03-04T03:55:33.116Z,13.68
2019-03-04T03:55:59.222Z,13.7
2019-03-04T03:56:25.327Z,13.71
2019-03-04T03:56:51.442Z,13.74
2019-03-04T03:57:17.569Z,13.78
2019-03-04T03:57:43.678Z,13.71
2019-03-04T03:58:09.823Z,13.68
2019-03-04T03:58:36.054Z,13.6
2019-03-04T03:59:02.184Z,13.62
2019-03-04T03:59:28.320Z,13.71
2019-03-04T03:59:54.433Z,13.72
2019-03-04T04:00:20.549Z,13.62
2019-03-04T04:00:46.639Z,13.65
2019-03-04T04:01:12.789Z,13.67
2019-03-04T04:01:38.923Z,13.74
2019-03-04T04:02:05.098Z,13.59
2019-03-04T04:02:31.281Z,13.74
2019-03-04T04:02:57.390Z,13.7
2019-03-04T04:03:23.528Z,13.7
2019-03-04T04:03:49.641Z,13.6
2019-03-04T04:04:15.747Z,13.63
2019-03-04T04:04:41.882Z,13.68
2019-03-04T04:05:08.026Z,13.68
2019-03-04T04:05:34.159Z,13.67
2019-03-04T04:06:00.268Z,13.7
2019-03-04T04:06:26.370Z,13.6
2019-03-04T04:06:52.517Z,13.62
2019-03-04T04:07:18.680Z,13.59
2019-03-04T04:07:44.795Z,13.7
2019-03-04T04:08:10.923Z,13.68
2019-03-04T04:08:37.083Z,13.67
2019-03-04T04:09:03.222Z,13.67
2019-03-04T04:09:29.356Z,13.6
2019-03-04T04:09:55.530Z,13.67
2019-03-04T04:10:21.638Z,13.67
2019-03-04T04:10:47.740Z,13.67
2019-03-04T04:11:13.845Z,13.67
2019-03-04T04:11:39.988Z,13.6
2019-03-04T04:12:06.119Z,13.67
2019-03-04T04:12:32.259Z,13.63
2019-03-04T04:12:58.358Z,13.75
2019-03-04T04:13:24.525Z,13.67
2019-03-04T04:13:50.629Z,13.71
2019-03-04T04:14:16.740Z,13.62
2019-03-04T04:14:43.842Z,13.62
2019-03-04T04:15:09.979Z,13.62
2019-03-04T04:15:36.164Z,13.67
2019-03-04T04:16:02.302Z,13.62
2019-03-04T04:16:28.411Z,13.6
2019-03-04T04:16:54.576Z,13.72
2019-03-04T04:17:20.687Z,13.74
2019-03-04T04:17:46.798Z,13.67
2019-03-04T04:18:12.907Z,13.7
2019-03-04T04:18:39.053Z,13.71
2019-03-04T04:19:05.149Z,13.75
2019-03-04T04:19:31.290Z,13.68
2019-03-04T04:19:58.355Z,13.57
2019-03-04T04:20:24.509Z,13.65
2019-03-04T04:20:50.598Z,13.68
2019-03-04T04:21:16.736Z,13.7
2019-03-04T04:21:42.900Z,13.65
2019-03-04T04:22:09.013Z,13.63
2019-03-04T04:22:35.112Z,13.7
2019-03-04T04:23:01.294Z,13.59
2019-03-04T04:23:27.448Z,13.62
2019-03-04T04:23:53.608Z,13.62
2019-03-04T04:24:19.718Z,13.63
2019-03-04T04:24:45.822Z,13.67
2019-03-04T04:25:11.958Z,13.62
2019-03-04T04:25:38.073Z,13.68
2019-03-04T04:26:04.208Z,13.6
2019-03-04T04:26:30.317Z,13.63
2019-03-04T04:26:56.433Z,13.63
2019-03-04T04:27:22.563Z,13.59
2019-03-04T04:27:48.688Z,13.59
2019-03-04T04:28:14.828Z,13.62
2019-03-04T04:28:40.972Z,13.56
2019-03-04T04:29:07.076Z,13.62
2019-03-04T04:29:33.185Z,13.65
2019-03-04T04:29:59.286Z,13.6
2019-03-04T04:30:25.457Z,13.65
2019-03-04T04:30:51.550Z,13.59
2019-03-04T04:31:17.657Z,13.6
2019-03-04T04:31:43.879Z,13.62
2019-03-04T04:32:10.051Z,13.65
2019-03-04T04:32:36.162Z,13.57
2019-03-04T04:33:02.293Z,13.6
2019-03-04T04:33:28.407Z,13.62
2019-03-04T04:33:54.543Z,13.71
2019-03-04T04:34:20.682Z,13.7
2019-03-04T04:34:46.851Z,13.72
2019-03-04T04:35:12.968Z,13.67
2019-03-04T04:35:39.097Z,13.63
2019-03-04T04:36:05.200Z,13.7
2019-03-04T04:36:31.310Z,13.7
2019-03-04T04:36:57.411Z,13.72
2019-03-04T04:37:23.527Z,13.7
2019-03-04T04:37:49.732Z,13.75
2019-03-04T04:38:15.930Z,13.62
2019-03-04T04:38:42.041Z,13.59
2019-03-04T04:39:08.178Z,13.57
2019-03-04T04:39:34.283Z,13.62
2019-03-04T04:40:00.490Z,13.6
2019-03-04T04:40:26.556Z,13.67
2019-03-04T04:40:52.689Z,13.65
2019-03-04T04:41:18.798Z,13.59
2019-03-04T04:41:44.902Z,13.7
2019-03-04T04:42:11.010Z,13.71
2019-03-04T04:42:37.151Z,13.63
2019-03-04T04:43:03.285Z,13.68
2019-03-04T04:43:29.396Z,13.6
2019-03-04T04:43:55.500Z,13.6
2019-03-04T04:44:21.644Z,13.68
2019-03-04T04:44:47.757Z,13.62
2019-03-04T04:45:13.865Z,13.67
2019-03-04T04:45:39.972Z,13.68
2019-03-04T04:46:06.079Z,13.68
2019-03-04T04:46:32.190Z,13.63
2019-03-04T04:46:58.296Z,13.65
2019-03-04T04:47:24.408Z,13.71
2019-03-04T04:47:50.513Z,13.74
2019-03-04T04:48:16.626Z,13.65
2019-03-04T04:48:42.757Z,13.65
2019-03-04T04:49:08.868Z,13.71
2019-03-04T04:49:34.975Z,13.7
2019-03-04T04:50:01.078Z,13.6
2019-03-04T04:50:27.187Z,13.7
2019-03-04T04:50:53.316Z,13.72
2019-03-04T04:51:19.453Z,13.62
2019-03-04T04:51:45.558Z,13.72
2019-03-04T04:52:11.662Z,13.74
2019-03-04T04:52:38.765Z,13.81
2019-03-04T04:53:04.898Z,13.77
2019-03-04T04:53:31.031Z,13.77
2019-03-04T04:53:57.136Z,13.81
2019-03-04T04:54:23.249Z,13.83
2019-03-04T04:54:49.354Z,13.74
2019-03-04T04:55:15.461Z,13.79
2019-03-04T04:55:41.568Z,13.75
2019-03-04T04:56:07.704Z,13.85
2019-03-04T04:56:33.910Z,13.78
2019-03-04T04:57:00.102Z,13.77
2019-03-04T04:57:26.175Z,13.78
2019-03-04T04:57:52.287Z,13.74
2019-03-04T04:58:18.393Z,13.71
2019-03-04T04:58:44.493Z,13.77
2019-03-04T04:59:10.635Z,13.78
2019-03-04T04:59:36.769Z,13.72
2019-03-04T05:00:02.873Z,13.78
2019-03-04T05:00:31.047Z,13.74
2019-03-04T05:00:56.078Z,13.72
2019-03-04T05:01:22.182Z,13.81
2019-03-04T05:01:48.282Z,13.85
2019-03-04T05:02:14.430Z,13.89
2019-03-04T05:02:40.566Z,13.79
2019-03-04T05:03:06.672Z,13.92
2019-03-04T05:03:32.776Z,13.86
2019-03-04T05:03:58.885Z,13.87
2019-03-04T05:04:24.990Z,13.81
2019-03-04T05:04:51.100Z,13.85
2019-03-04T05:05:17.212Z,13.87
2019-03-04T05:05:43.321Z,13.85
2019-03-04T05:06:09.429Z,13.87
2019-03-04T05:06:35.535Z,13.89
2019-03-04T05:07:01.693Z,13.87
2019-03-04T05:07:27.797Z,13.89
2019-03-04T05:07:53.910Z,13.81
2019-03-04T05:08:20.027Z,13.93
2019-03-04T05:08:46.128Z,13.9
2019-03-04T05:09:12.241Z,13.9
2019-03-04T05:09:38.346Z,13.97
2019-03-04T05:10:04.446Z,13.97
2019-03-04T05:10:30.588Z,13.96
2019-03-04T05:10:56.699Z,13.99
2019-03-04T05:11:22.806Z,14.05
2019-03-04T05:11:48.950Z,13.95
2019-03-04T05:12:15.529Z,13.97
2019-03-04T05:12:41.641Z,13.95
2019-03-04T05:13:07.742Z,13.95
2019-03-04T05:13:33.903Z,14.04
2019-03-04T05:14:00.014Z,13.97
2019-03-04T05:14:26.120Z,13.96
2019-03-04T05:14:52.227Z,14.08
2019-03-04T05:15:18.327Z,13.93
2019-03-04T05:15:44.430Z,14.03
2019-03-04T05:16:10.544Z,13.99
2019-03-04T05:16:36.681Z,14.04
2019-03-04T05:17:02.882Z,13.99
2019-03-04T05:17:28.993Z,13.96
2019-03-04T05:17:55.572Z,13.99
2019-03-04T05:18:21.681Z,14.11
2019-03-04T05:18:47.790Z,14.04
2019-03-04T05:19:13.902Z,14.08
2019-03-04T05:19:40.004Z,14.03
2019-03-04T05:20:06.111Z,14
2019-03-04T05:20:32.245Z,14
2019-03-04T05:20:58.380Z,14.14
2019-03-04T05:21:24.480Z,14
2019-03-04T05:21:50.623Z,13.97
2019-03-04T05:22:16.722Z,14.11
2019-03-04T05:22:42.833Z,14
2019-03-04T05:23:08.933Z,14.08
2019-03-04T05:23:35.038Z,14.12
2019-03-04T05:24:01.266Z,14.11
2019-03-04T05:24:29.524Z,14.11
2019-03-04T05:24:53.540Z,14.12
2019-03-04T05:25:19.695Z,14.12
2019-03-04T05:25:45.828Z,14.1
2019-03-04T05:26:12.012Z,14.15
2019-03-04T05:26:38.203Z,14.1
2019-03-04T05:27:04.309Z,14.1
2019-03-04T05:27:30.440Z,14.1
2019-03-04T05:27:56.556Z,14.12
2019-03-04T05:28:22.665Z,14.07
2019-03-04T05:28:48.770Z,14.1
2019-03-04T05:29:14.873Z,14.18
2019-03-04T05:29:40.980Z,14.17
2019-03-04T05:30:07.097Z,14.17
2019-03-04T05:30:33.202Z,14.12
2019-03-04T05:30:59.310Z,14.15
2019-03-04T05:31:25.419Z,14.08
2019-03-04T05:31:51.534Z,14.14
2019-03-04T05:32:17.633Z,14.15
2019-03-04T05:32:43.742Z,14.25
2019-03-04T05:33:09.853Z,14.14
2019-03-04T05:33:35.994Z,14.15
2019-03-04T05:34:02.106Z,14.12
2019-03-04T05:34:28.208Z,14.14
2019-03-04T05:34:54.317Z,14.22
2019-03-04T05:35:20.418Z,14.22
2019-03-04T05:35:46.528Z,14.12
2019-03-04T05:36:12.635Z,14.23
2019-03-04T05:36:38.746Z,14.22
2019-03-04T05:37:05.839Z,14.22
2019-03-04T05:37:31.946Z,14.25
2019-03-04T05:37:58.059Z,14.23
2019-03-04T05:38:24.194Z,14.2